Time;durP1;ratioP1;P1;durP2;ratioP2;P2;SDS_P1;SDS_P2;PMS_P1;PMS_P2;Temp;Humidity;BMP_temperature;BMP_pressure;BME280_temperature;BME280_humidity;BME280_pressure;Samples;Min_cycle;Max_cycle;Signal;HPM_P1;HPM_P2
2022/03/12 00:02:22;;;;;;;7.33;3.10;;;;;;;;;;6147772;23;20173;-89
2022/03/12 00:05:33;;;;;;;6.73;2.87;;;;;;;;;;6147905;23;20177;-90
2022/03/12 00:08:43;;;;;;;5.77;2.30;;;;;;;;;;6148406;23;20255;-91
2022/03/12 00:11:51;;;;;;;10.20;2.30;;;;;;;;;;6147943;23;20244;-90
2022/03/12 00:14:56;;;;;;;6.07;2.60;;;;;;;;;;6148431;23;20362;-91
2022/03/12 00:18:03;;;;;;;6.73;2.77;;;;;;;;;;6147930;23;20625;-90
2022/03/12 00:21:11;;;;;;;12.23;3.53;;;;;;;;;;6147440;23;20239;-87
2022/03/12 00:24:17;;;;;;;14.30;3.93;;;;;;;;;;6148210;23;20173;-89
2022/03/12 00:27:22;;;;;;;7.57;3.17;;;;;;;;;;6148316;23;20220;-88
2022/03/12 00:30:27;;;;;;;6.97;2.60;;;;;;;;;;6147242;23;20508;-86
2022/03/12 00:33:33;;;;;;;11.60;3.23;;;;;;;;;;6146823;23;20168;-90
2022/03/12 00:36:39;;;;;;;9.77;3.30;;;;;;;;;;6147255;23;20168;-88
2022/03/12 00:39:47;;;;;;;10.40;3.10;;;;;;;;;;6146705;23;20171;-91
2022/03/12 00:42:52;;;;;;;7.63;2.87;;;;;;;;;;6165040;23;20535;-90
2022/03/12 00:45:57;;;;;;;5.97;3.10;;;;;;;;;;6146265;23;20172;-88
2022/03/12 00:49:03;;;;;;;10.60;3.10;;;;;;;;;;6146934;23;20181;-89
2022/03/12 00:52:09;;;;;;;6.53;2.60;;;;;;;;;;6147501;23;20192;-89
2022/03/12 00:55:14;;;;;;;4.10;2.33;;;;;;;;;;6146356;23;20200;-91
2022/03/12 00:58:19;;;;;;;5.13;2.50;;;;;;;;;;6145771;23;20520;-89
2022/03/12 01:01:24;;;;;;;6.60;2.70;;;;;;;;;;6146197;23;20169;-89
2022/03/12 01:04:32;;;;;;;6.37;2.73;;;;;;;;;;6165110;23;20203;-90
2022/03/12 01:07:37;;;;;;;5.23;2.70;;;;;;;;;;6177092;23;20224;-88
2022/03/12 01:10:42;;;;;;;6.97;3.07;;;;;;;;;;6176922;23;20208;-89
2022/03/12 01:13:47;;;;;;;6.43;2.47;;;;;;;;;;6177149;23;20168;-89
2022/03/12 01:16:52;;;;;;;5.43;2.70;;;;;;;;;;6176171;23;20211;-88
2022/03/12 01:19:58;;;;;;;7.47;2.70;;;;;;;;;;6195096;23;20248;-87
2022/03/12 01:23:04;;;;;;;7.30;2.40;;;;;;;;;;6176306;23;20167;-90
2022/03/12 01:26:11;;;;;;;5.13;3.03;;;;;;;;;;6175555;23;20167;-89
2022/03/12 01:29:19;;;;;;;7.23;2.83;;;;;;;;;;6176903;23;20172;-89
2022/03/12 01:32:24;;;;;;;6.00;2.70;;;;;;;;;;6176744;23;20216;-89
2022/03/12 01:35:31;;;;;;;4.33;2.40;;;;;;;;;;6176655;23;20233;-86
2022/03/12 01:38:37;;;;;;;6.97;2.87;;;;;;;;;;6177452;23;20283;-87
2022/03/12 01:41:43;;;;;;;8.07;3.07;;;;;;;;;;6176123;23;20168;-89
2022/03/12 01:44:51;;;;;;;10.03;3.37;;;;;;;;;;6176686;23;20513;-88
2022/03/12 01:47:56;;;;;;;6.17;2.93;;;;;;;;;;6177043;23;20167;-88
2022/03/12 01:51:03;;;;;;;10.80;3.17;;;;;;;;;;6175325;23;20171;-89
2022/03/12 01:54:09;;;;;;;7.87;3.30;;;;;;;;;;6176099;23;20168;-88
2022/03/12 01:57:15;;;;;;;10.57;3.47;;;;;;;;;;6175320;23;20191;-90
2022/03/12 02:00:24;;;;;;;5.93;2.70;;;;;;;;;;6178032;23;20228;-90
2022/03/12 02:03:30;;;;;;;7.20;2.90;;;;;;;;;;6177121;23;20186;-89
2022/03/12 02:06:45;;;;;;;10.17;3.40;;;;;;;;;;6177339;23;20175;-89
2022/03/12 02:09:50;;;;;;;4.37;2.50;;;;;;;;;;6177590;23;20214;-89
2022/03/12 02:12:55;;;;;;;6.30;2.90;;;;;;;;;;6177107;23;20223;-88
2022/03/12 02:16:06;;;;;;;10.40;2.90;;;;;;;;;;6176419;23;20175;-90
2022/03/12 02:19:12;;;;;;;9.83;2.80;;;;;;;;;;6177418;23;20171;-88
2022/03/12 02:22:19;;;;;;;6.13;2.60;;;;;;;;;;6175648;23;20208;-89
2022/03/12 02:25:30;;;;;;;5.97;2.57;;;;;;;;;;6176550;23;20176;-89
2022/03/12 02:28:35;;;;;;;6.10;2.63;;;;;;;;;;6178061;23;20245;-88
2022/03/12 02:31:41;;;;;;;6.10;2.97;;;;;;;;;;6175789;23;20265;-89
2022/03/12 02:34:47;;;;;;;7.40;3.03;;;;;;;;;;6176363;23;20295;-90
2022/03/12 02:37:53;;;;;;;7.40;2.93;;;;;;;;;;6175433;23;20172;-89
2022/03/12 02:41:10;;;;;;;6.07;3.00;;;;;;;;;;6176480;23;20168;-90
2022/03/12 02:44:18;;;;;;;10.50;2.87;;;;;;;;;;6176515;23;20260;-89
2022/03/12 02:47:24;;;;;;;5.90;2.80;;;;;;;;;;6175573;23;20259;-89
2022/03/12 02:50:29;;;;;;;7.07;3.00;;;;;;;;;;6177111;23;20172;-91
2022/03/12 02:53:34;;;;;;;8.00;3.10;;;;;;;;;;6176916;23;20220;-86
2022/03/12 02:56:41;;;;;;;9.13;3.37;;;;;;;;;;6175556;23;20192;-89
2022/03/12 02:59:50;;;;;;;8.20;3.57;;;;;;;;;;6178166;23;20168;-89
2022/03/12 03:02:57;;;;;;;8.87;2.87;;;;;;;;;;6178798;23;20180;-88
2022/03/12 03:06:02;;;;;;;6.63;3.10;;;;;;;;;;6167564;23;20630;-90
2022/03/12 03:09:08;;;;;;;6.47;2.90;;;;;;;;;;6167253;23;20285;-86
2022/03/12 03:12:14;;;;;;;7.67;3.03;;;;;;;;;;6168494;23;20188;-88
2022/03/12 03:15:21;;;;;;;10.97;3.90;;;;;;;;;;6166495;23;20245;-88
2022/03/12 03:18:26;;;;;;;9.50;3.53;;;;;;;;;;6165924;23;20196;-89
2022/03/12 03:21:34;;;;;;;7.73;3.17;;;;;;;;;;6149823;23;20153;-89
2022/03/12 03:24:39;;;;;;;16.63;3.27;;;;;;;;;;6166406;23;20172;-90
2022/03/12 03:27:47;;;;;;;9.33;3.43;;;;;;;;;;6166088;23;20192;-90
2022/03/12 03:30:52;;;;;;;7.50;3.23;;;;;;;;;;6166542;23;20156;-88
2022/03/12 03:33:57;;;;;;;8.23;3.10;;;;;;;;;;6166186;23;20196;-90
2022/03/12 03:37:04;;;;;;;12.53;4.17;;;;;;;;;;6168877;23;20172;-88
2022/03/12 03:40:09;;;;;;;11.27;3.23;;;;;;;;;;6167559;23;20172;-87
2022/03/12 03:43:16;;;;;;;13.60;3.40;;;;;;;;;;6166782;23;20644;-90
2022/03/12 03:46:22;;;;;;;8.17;2.93;;;;;;;;;;6166446;23;20193;-87
2022/03/12 03:49:28;;;;;;;11.23;2.90;;;;;;;;;;6167353;23;20173;-90
2022/03/12 03:52:32;;;;;;;7.87;3.60;;;;;;;;;;6166794;23;20320;-90
2022/03/12 03:55:38;;;;;;;7.33;2.93;;;;;;;;;;6166659;23;20728;-89
2022/03/12 03:58:45;;;;;;;6.20;2.57;;;;;;;;;;6165885;23;20691;-87
2022/03/12 04:01:50;;;;;;;9.03;2.80;;;;;;;;;;6166009;23;20169;-88
2022/03/12 04:04:56;;;;;;;6.97;2.83;;;;;;;;;;6166742;23;20183;-89
2022/03/12 04:08:01;;;;;;;6.77;3.07;;;;;;;;;;6166893;23;20248;-89
2022/03/12 04:11:08;;;;;;;8.63;2.77;;;;;;;;;;6166973;23;20164;-89
2022/03/12 04:14:15;;;;;;;9.57;3.40;;;;;;;;;;6165780;23;20609;-88
2022/03/12 04:17:21;;;;;;;5.83;2.80;;;;;;;;;;6167485;23;20621;-89
2022/03/12 04:20:27;;;;;;;10.00;3.00;;;;;;;;;;6166213;23;20173;-89
2022/03/12 04:23:32;;;;;;;16.60;4.73;;;;;;;;;;6165801;23;20718;-88
2022/03/12 04:26:37;;;;;;;18.07;5.17;;;;;;;;;;6163847;23;20172;-86
2022/03/12 04:29:44;;;;;;;18.50;4.43;;;;;;;;;;6166507;23;20192;-89
2022/03/12 04:32:49;;;;;;;14.17;4.67;;;;;;;;;;6166299;23;20208;-89
2022/03/12 04:35:58;;;;;;;14.43;4.90;;;;;;;;;;6166485;23;20173;-86
2022/03/12 04:39:05;;;;;;;11.40;4.17;;;;;;;;;;6167099;23;20180;-86
2022/03/12 04:42:10;;;;;;;13.73;4.23;;;;;;;;;;6167464;23;20169;-86
2022/03/12 04:45:18;;;;;;;11.60;4.50;;;;;;;;;;6166830;23;20173;-89
2022/03/12 04:48:24;;;;;;;12.97;3.97;;;;;;;;;;6166381;23;20180;-89
2022/03/12 04:51:29;;;;;;;13.13;4.03;;;;;;;;;;6166441;23;20172;-87
2022/03/12 04:54:35;;;;;;;11.97;3.77;;;;;;;;;;6167043;23;20189;-90
2022/03/12 04:57:40;;;;;;;16.97;4.03;;;;;;;;;;6168166;23;20245;-88
2022/03/12 05:00:50;;;;;;;9.07;3.47;;;;;;;;;;6165664;23;20168;-90
2022/03/12 05:03:56;;;;;;;11.07;3.83;;;;;;;;;;6178483;23;20191;-88
2022/03/12 05:07:05;;;;;;;9.80;3.10;;;;;;;;;;6178007;23;20171;-87
2022/03/12 05:10:10;;;;;;;8.33;3.53;;;;;;;;;;6178892;23;20223;-89
2022/03/12 05:13:16;;;;;;;11.30;3.77;;;;;;;;;;6180160;23;20303;-90
2022/03/12 05:16:23;;;;;;;7.30;2.93;;;;;;;;;;6180709;23;20623;-87
2022/03/12 05:19:28;;;;;;;10.60;3.40;;;;;;;;;;6179028;23;20166;-87
2022/03/12 05:22:33;;;;;;;12.43;3.77;;;;;;;;;;6179079;23;20151;-88
2022/03/12 05:25:41;;;;;;;9.90;3.80;;;;;;;;;;6179368;23;20163;-88
2022/03/12 05:28:46;;;;;;;8.57;3.57;;;;;;;;;;6180418;23;20255;-89
2022/03/12 05:31:53;;;;;;;12.33;3.73;;;;;;;;;;6180385;23;20171;-90
2022/03/12 05:34:58;;;;;;;11.10;3.90;;;;;;;;;;6180110;23;20192;-90
2022/03/12 05:38:03;;;;;;;7.60;3.10;;;;;;;;;;6179369;23;20630;-87
2022/03/12 05:41:11;;;;;;;17.07;3.80;;;;;;;;;;6181501;23;20167;-88
2022/03/12 05:44:17;;;;;;;9.07;3.53;;;;;;;;;;6182382;23;20168;-87
2022/03/12 05:47:24;;;;;;;12.53;3.70;;;;;;;;;;6179850;23;20167;-89
2022/03/12 05:50:30;;;;;;;8.00;3.00;;;;;;;;;;6179150;23;20172;-87
2022/03/12 05:53:36;;;;;;;10.07;3.43;;;;;;;;;;6178735;23;20244;-89
2022/03/12 05:56:41;;;;;;;10.47;3.37;;;;;;;;;;6178494;23;20233;-87
2022/03/12 05:59:48;;;;;;;8.40;2.97;;;;;;;;;;6177042;23;20176;-88
2022/03/12 06:02:55;;;;;;;12.60;3.43;;;;;;;;;;6177995;23;20578;-90
2022/03/12 06:06:00;;;;;;;8.80;3.30;;;;;;;;;;6165761;23;20693;-87
2022/03/12 06:09:08;;;;;;;7.60;3.27;;;;;;;;;;6166894;23;20169;-88
2022/03/12 06:12:13;;;;;;;9.00;3.73;;;;;;;;;;6166023;23;20628;-90
2022/03/12 06:15:20;;;;;;;9.13;3.50;;;;;;;;;;6166380;23;20188;-91
2022/03/12 06:18:27;;;;;;;14.80;3.87;;;;;;;;;;6167524;23;20226;-88
2022/03/12 06:21:32;;;;;;;12.13;4.00;;;;;;;;;;6168870;23;20605;-89
2022/03/12 06:24:37;;;;;;;11.33;3.80;;;;;;;;;;6167747;23;20168;-88
2022/03/12 06:27:43;;;;;;;10.20;3.30;;;;;;;;;;6168061;23;20176;-86
2022/03/12 06:30:50;;;;;;;7.80;3.57;;;;;;;;;;6165830;23;20615;-89
2022/03/12 06:33:56;;;;;;;8.73;3.70;;;;;;;;;;6167488;23;20188;-89
2022/03/12 06:37:02;;;;;;;10.70;3.43;;;;;;;;;;6165923;23;20497;-89
2022/03/12 06:40:08;;;;;;;11.17;3.70;;;;;;;;;;6166818;23;20613;-87
2022/03/12 06:43:18;;;;;;;8.90;3.40;;;;;;;;;;6166336;23;20247;-88
2022/03/12 06:46:25;;;;;;;9.90;4.03;;;;;;;;;;6166259;23;20179;-88
2022/03/12 06:49:32;;;;;;;11.80;3.77;;;;;;;;;;6168101;23;20164;-87
2022/03/12 06:52:40;;;;;;;8.50;3.83;;;;;;;;;;6168251;23;20168;-89
2022/03/12 06:55:46;;;;;;;8.60;3.73;;;;;;;;;;6168134;23;20485;-87
2022/03/12 06:58:52;;;;;;;11.77;3.87;;;;;;;;;;6167968;23;20176;-88
2022/03/12 07:01:57;;;;;;;8.23;4.23;;;;;;;;;;6167075;23;20173;-87
2022/03/12 07:05:05;;;;;;;12.93;4.47;;;;;;;;;;6165513;23;20267;-87
2022/03/12 07:08:10;;;;;;;9.67;4.00;;;;;;;;;;6168494;23;20235;-88
2022/03/12 07:11:16;;;;;;;13.47;5.30;;;;;;;;;;6169305;23;20192;-87
2022/03/12 07:14:22;;;;;;;9.27;3.80;;;;;;;;;;6166717;23;20254;-87
2022/03/12 07:17:29;;;;;;;15.60;5.70;;;;;;;;;;6168105;23;20280;-90
2022/03/12 07:20:37;;;;;;;11.53;4.73;;;;;;;;;;6167830;23;20293;-89
2022/03/12 07:23:42;;;;;;;11.27;3.67;;;;;;;;;;6166616;23;20167;-88
2022/03/12 07:26:47;;;;;;;7.03;3.57;;;;;;;;;;6163883;23;20200;-89
2022/03/12 07:29:52;;;;;;;8.40;3.80;;;;;;;;;;6165482;23;20169;-88
2022/03/12 07:32:58;;;;;;;9.47;3.30;;;;;;;;;;6167983;23;20173;-90
2022/03/12 07:36:06;;;;;;;15.00;3.70;;;;;;;;;;6167040;23;20176;-89
2022/03/12 07:39:12;;;;;;;10.67;4.23;;;;;;;;;;6165977;23;20641;-89
2022/03/12 07:42:18;;;;;;;7.40;3.63;;;;;;;;;;6167354;23;20172;-88
2022/03/12 07:45:23;;;;;;;8.90;3.47;;;;;;;;;;6168541;23;20188;-90
2022/03/12 07:48:28;;;;;;;7.10;3.10;;;;;;;;;;6167647;23;20172;-91
2022/03/12 07:51:35;;;;;;;19.40;3.80;;;;;;;;;;6164024;23;20207;-89
2022/03/12 07:54:40;;;;;;;10.33;3.73;;;;;;;;;;6165065;23;20211;-90
2022/03/12 07:57:46;;;;;;;10.40;4.40;;;;;;;;;;6163468;23;20289;-90
2022/03/12 08:00:51;;;;;;;8.17;3.73;;;;;;;;;;6164753;23;20240;-91
2022/03/12 08:03:57;;;;;;;28.33;6.07;;;;;;;;;;6176531;23;20191;-89
2022/03/12 08:07:05;;;;;;;18.70;5.73;;;;;;;;;;6179206;23;20167;-90
2022/03/12 08:10:10;;;;;;;36.93;7.93;;;;;;;;;;6183510;23;20172;-89
2022/03/12 08:13:19;;;;;;;15.90;5.30;;;;;;;;;;6200363;23;20191;-88
2022/03/12 08:16:29;;;;;;;29.23;6.73;;;;;;;;;;6176943;23;20626;-87
2022/03/12 08:19:37;;;;;;;11.07;3.80;;;;;;;;;;6179469;23;20168;-90
2022/03/12 08:22:45;;;;;;;9.93;3.90;;;;;;;;;;6180248;23;20613;-90
2022/03/12 08:25:50;;;;;;;9.03;3.90;;;;;;;;;;6180508;23;20505;-89
2022/03/12 08:28:55;;;;;;;7.90;4.03;;;;;;;;;;6180736;23;20180;-89
2022/03/12 08:35:21;;;;;;;10.87;3.90;;;;;;;;;;6179543;23;20188;-90
2022/03/12 08:38:34;;;;;;;9.60;4.00;;;;;;;;;;6181154;23;20245;-91
2022/03/12 08:41:44;;;;;;;6.43;3.23;;;;;;;;;;6182168;23;20167;-88
2022/03/12 08:44:50;;;;;;;9.70;3.60;;;;;;;;;;6199915;23;20180;-88
2022/03/12 08:47:56;;;;;;;9.00;3.60;;;;;;;;;;6181890;23;20496;-88
2022/03/12 08:51:01;;;;;;;10.77;3.60;;;;;;;;;;6182207;23;20216;-89
2022/03/12 08:54:08;;;;;;;10.17;3.60;;;;;;;;;;6181856;23;20324;-88
2022/03/12 08:57:13;;;;;;;6.63;2.70;;;;;;;;;;6182607;23;20233;-91
2022/03/12 09:00:18;;;;;;;6.90;3.20;;;;;;;;;;6181827;23;20611;-90
2022/03/12 09:03:24;;;;;;;7.40;2.87;;;;;;;;;;6181961;23;20187;-87
2022/03/12 09:06:32;;;;;;;5.73;2.53;;;;;;;;;;6150950;23;20252;-90
2022/03/12 09:09:39;;;;;;;5.00;2.50;;;;;;;;;;6148034;23;20176;-89
2022/03/12 09:12:44;;;;;;;4.50;2.30;;;;;;;;;;6150474;23;20246;-88
2022/03/12 09:15:54;;;;;;;12.73;2.83;;;;;;;;;;6150447;23;20165;-91
2022/03/12 09:19:00;;;;;;;4.57;2.40;;;;;;;;;;6152153;23;20173;-89
2022/03/12 09:22:05;;;;;;;7.13;2.70;;;;;;;;;;6152488;23;20238;-90
2022/03/12 09:25:15;;;;;;;6.77;2.33;;;;;;;;;;6151583;23;20168;-88
2022/03/12 09:28:20;;;;;;;9.10;2.70;;;;;;;;;;6150810;23;20222;-91
2022/03/12 09:31:25;;;;;;;6.37;2.67;;;;;;;;;;6149876;23;20234;-90
2022/03/12 09:34:30;;;;;;;10.30;2.73;;;;;;;;;;6154558;23;20180;-89
2022/03/12 09:37:38;;;;;;;6.37;2.67;;;;;;;;;;6151556;23;20243;-88
2022/03/12 09:40:45;;;;;;;7.80;2.50;;;;;;;;;;6151801;23;20750;-90
2022/03/12 09:43:51;;;;;;;5.83;2.60;;;;;;;;;;6151459;23;20172;-91
2022/03/12 09:46:57;;;;;;;8.00;2.47;;;;;;;;;;6153531;23;20201;-90
2022/03/12 09:50:06;;;;;;;4.77;2.33;;;;;;;;;;6151289;23;20176;-88
2022/03/12 09:53:16;;;;;;;7.10;2.67;;;;;;;;;;6152780;23;20270;-88
2022/03/12 09:56:23;;;;;;;5.43;2.43;;;;;;;;;;6152987;23;20168;-88
2022/03/12 09:59:29;;;;;;;5.17;2.20;;;;;;;;;;6153658;23;20172;-88
2022/03/12 10:02:34;;;;;;;7.33;2.93;;;;;;;;;;6150932;23;20171;-89
2022/03/12 10:05:39;;;;;;;8.37;2.70;;;;;;;;;;6195466;23;20187;-88
2022/03/12 10:08:45;;;;;;;4.00;1.90;;;;;;;;;;6180089;23;20237;-89
2022/03/12 10:11:54;;;;;;;5.83;2.60;;;;;;;;;;6179840;23;20615;-91
2022/03/12 10:15:05;;;;;;;5.47;2.30;;;;;;;;;;6185817;23;20203;-89
2022/03/12 10:18:11;;;;;;;6.30;2.40;;;;;;;;;;6184226;23;20184;-88
2022/03/12 10:21:16;;;;;;;5.30;2.50;;;;;;;;;;6183279;23;20167;-87
2022/03/12 10:24:22;;;;;;;6.50;2.27;;;;;;;;;;6183256;23;20167;-89
2022/03/12 10:27:28;;;;;;;4.47;2.10;;;;;;;;;;6182175;23;20194;-89
2022/03/12 10:30:34;;;;;;;7.27;2.33;;;;;;;;;;6184581;23;20159;-90
2022/03/12 10:33:42;;;;;;;4.60;2.30;;;;;;;;;;6183835;23;20183;-88
2022/03/12 10:36:48;;;;;;;5.63;2.20;;;;;;;;;;6181066;23;20188;-89
2022/03/12 10:40:03;;;;;;;6.57;2.45;;;;;;;;;;6198526;23;20175;-89
2022/03/12 10:43:14;;;;;;;3.75;2.28;;;;;;;;;;6182320;23;20168;-88
2022/03/12 10:46:23;;;;;;;5.45;2.08;;;;;;;;;;6181621;23;20168;-87
2022/03/12 10:49:28;;;;;;;4.70;2.30;;;;;;;;;;6182295;23;20168;-89
2022/03/12 10:52:34;;;;;;;4.45;2.33;;;;;;;;;;6181664;23;20168;-87
2022/03/12 10:55:41;;;;;;;5.00;2.30;;;;;;;;;;6183053;23;20191;-90
2022/03/12 10:58:48;;;;;;;4.80;2.33;;;;;;;;;;6180939;23;20167;-88
2022/03/12 11:01:54;;;;;;;4.43;2.33;;;;;;;;;;6183165;23;20236;-87
2022/03/12 11:05:04;;;;;;;6.85;2.63;;;;;;;;;;6169220;23;20192;-90
2022/03/12 11:08:10;;;;;;;7.22;2.35;;;;;;;;;;6168782;23;20177;-90
2022/03/12 11:11:16;;;;;;;4.18;2.10;;;;;;;;;;6169539;23;20164;-90
2022/03/12 11:14:22;;;;;;;4.15;2.47;;;;;;;;;;6166642;23;20200;-92
2022/03/12 11:17:27;;;;;;;5.40;2.22;;;;;;;;;;6173064;23;20616;-90
2022/03/12 11:20:36;;;;;;;5.88;2.30;;;;;;;;;;6168336;23;20172;-92
2022/03/12 11:23:43;;;;;;;3.47;2.05;;;;;;;;;;6171582;23;20250;-91
2022/03/12 11:26:50;;;;;;;4.40;2.17;;;;;;;;;;6168069;23;20173;-90
2022/03/12 11:30:00;;;;;;;4.35;2.42;;;;;;;;;;6169319;23;20176;-91
2022/03/12 11:33:06;;;;;;;4.45;1.95;;;;;;;;;;6169459;23;20659;-90
2022/03/12 11:36:12;;;;;;;4.43;2.05;;;;;;;;;;6170394;23;20192;-90
2022/03/12 11:39:21;;;;;;;7.10;2.03;;;;;;;;;;6169584;23;20180;-90
2022/03/12 11:42:27;;;;;;;2.97;1.70;;;;;;;;;;6169975;23;20176;-89
2022/03/12 11:45:34;;;;;;;6.50;2.22;;;;;;;;;;6170864;23;20176;-91
2022/03/12 11:48:41;;;;;;;3.70;2.05;;;;;;;;;;6170215;23;20176;-90
2022/03/12 11:51:56;;;;;;;5.55;2.35;;;;;;;;;;6172775;23;20492;-92
2022/03/12 11:55:03;;;;;;;3.22;1.83;;;;;;;;;;6170828;23;20240;-92
2022/03/12 11:58:08;;;;;;;4.20;1.83;;;;;;;;;;6169911;23;20160;-91
2022/03/12 12:01:20;;;;;;;4.40;2.17;;;;;;;;;;6168913;23;20168;-89
2022/03/12 12:04:26;;;;;;;5.22;2.20;;;;;;;;;;6181629;23;20642;-89
2022/03/12 12:07:36;;;;;;;3.42;2.10;;;;;;;;;;6184533;23;20219;-91
2022/03/12 12:10:42;;;;;;;5.18;2.05;;;;;;;;;;6184095;23;20180;-91
2022/03/12 12:13:50;;;;;;;3.33;1.90;;;;;;;;;;6182700;23;20171;-90
2022/03/12 12:17:28;;;;;;;4.00;2.00;;;;;;;;;;6181609;23;20167;-92
2022/03/12 12:20:35;;;;;;;5.72;2.08;;;;;;;;;;6184710;23;20172;-90
2022/03/12 12:23:41;;;;;;;5.05;1.75;;;;;;;;;;6182964;23;20224;-91
2022/03/12 12:26:57;;;;;;;5.38;1.75;;;;;;;;;;6181269;23;20285;-91
2022/03/12 12:30:03;;;;;;;4.18;2.00;;;;;;;;;;6183583;23;20497;-90
2022/03/12 12:33:17;;;;;;;3.50;1.65;;;;;;;;;;6184025;23;20167;-89
2022/03/12 12:36:25;;;;;;;7.65;1.85;;;;;;;;;;6184664;23;20203;-91
2022/03/12 12:39:33;;;;;;;3.50;1.83;;;;;;;;;;6189305;23;20168;-90
2022/03/12 12:42:41;;;;;;;4.15;1.98;;;;;;;;;;6183223;23;20159;-89
2022/03/12 12:46:08;;;;;;;6.93;1.80;;;;;;;;;;6184226;23;20163;-89
2022/03/12 12:49:17;;;;;;;3.70;2.03;;;;;;;;;;6184454;23;20176;-89
2022/03/12 12:52:32;;;;;;;4.95;1.83;;;;;;;;;;6182709;23;20168;-90
2022/03/12 12:55:38;;;;;;;4.63;1.95;;;;;;;;;;6184417;23;20192;-89
2022/03/12 12:59:04;;;;;;;6.00;2.50;;;;;;;;;;6183949;23;20172;-87
2022/03/12 13:02:09;;;;;;;6.03;1.60;;;;;;;;;;6199941;23;20631;-88
2022/03/12 13:05:16;;;;;;;6.53;2.10;;;;;;;;;;6172278;23;20699;-89
2022/03/12 13:08:25;;;;;;;5.63;2.00;;;;;;;;;;6170332;23;20232;-89
2022/03/12 13:11:32;;;;;;;8.27;2.00;;;;;;;;;;6172337;23;20172;-90
2022/03/12 13:14:42;;;;;;;4.35;1.70;;;;;;;;;;6170716;23;20196;-91
2022/03/12 13:17:48;;;;;;;3.80;1.70;;;;;;;;;;6171530;23;20205;-88
2022/03/12 13:20:54;;;;;;;3.58;1.73;;;;;;;;;;6170101;23;20164;-90
2022/03/12 13:24:03;;;;;;;6.05;2.10;;;;;;;;;;6171250;23;20172;-90
2022/03/12 13:27:16;;;;;;;4.63;2.00;;;;;;;;;;6170199;23;20177;-90
2022/03/12 13:30:25;;;;;;;4.70;2.10;;;;;;;;;;6171846;23;20234;-90
2022/03/12 13:33:34;;;;;;;6.00;2.17;;;;;;;;;;6172320;23;20213;-89
2022/03/12 13:36:40;;;;;;;3.70;1.90;;;;;;;;;;6169847;23;20267;-88
2022/03/12 13:39:46;;;;;;;5.45;1.70;;;;;;;;;;6171940;23;20157;-91
2022/03/12 13:42:54;;;;;;;4.35;2.00;;;;;;;;;;6170534;23;20217;-90
2022/03/12 13:46:01;;;;;;;4.60;1.98;;;;;;;;;;6167131;23;20168;-89
2022/03/12 13:49:09;;;;;;;5.88;1.98;;;;;;;;;;6167652;23;20164;-89
2022/03/12 13:52:17;;;;;;;5.50;2.05;;;;;;;;;;6169859;23;20244;-90
2022/03/12 13:55:24;;;;;;;4.88;1.85;;;;;;;;;;6169354;23;20312;-89
2022/03/12 13:58:30;;;;;;;3.40;1.90;;;;;;;;;;6169139;23;20172;-90
2022/03/12 14:01:36;;;;;;;3.42;1.70;;;;;;;;;;6172013;23;20160;-92
2022/03/12 14:04:41;;;;;;;3.00;1.92;;;;;;;;;;6188766;23;20256;-90
2022/03/12 14:07:48;;;;;;;4.22;2.22;;;;;;;;;;6185474;23;20168;-91
2022/03/12 14:10:55;;;;;;;4.80;2.20;;;;;;;;;;6182787;23;20499;-92
2022/03/12 14:14:02;;;;;;;6.03;2.30;;;;;;;;;;6182252;23;20163;-89
2022/03/12 14:17:08;;;;;;;5.85;2.28;;;;;;;;;;6183182;23;20175;-92
2022/03/12 14:20:14;;;;;;;6.97;2.20;;;;;;;;;;6181696;23;20179;-90
2022/03/12 14:23:22;;;;;;;3.63;1.95;;;;;;;;;;6184023;23;20151;-90
2022/03/12 14:26:30;;;;;;;3.67;2.08;;;;;;;;;;6183803;23;20176;-91
2022/03/12 14:29:36;;;;;;;4.13;2.67;;;;;;;;;;6200028;23;20239;-90
2022/03/12 14:32:43;;;;;;;3.33;2.05;;;;;;;;;;6184451;23;20211;-91
2022/03/12 14:35:48;;;;;;;8.18;2.40;;;;;;;;;;6181811;23;20203;-91
2022/03/12 14:38:54;;;;;;;4.38;2.20;;;;;;;;;;6186020;23;20164;-93
2022/03/12 14:42:08;;;;;;;4.88;2.30;;;;;;;;;;6185380;23;20241;-91
2022/03/12 14:45:15;;;;;;;3.65;2.10;;;;;;;;;;6185654;23;20171;-89
2022/03/12 14:48:21;;;;;;;4.80;2.00;;;;;;;;;;6186431;23;20211;-91
2022/03/12 14:51:27;;;;;;;3.28;2.00;;;;;;;;;;6186633;23;20172;-93
2022/03/12 14:54:37;;;;;;;7.70;2.17;;;;;;;;;;6186759;23;20172;-90
2022/03/12 14:57:46;;;;;;;4.45;1.98;;;;;;;;;;6185677;23;20608;-92
2022/03/12 15:00:52;;;;;;;8.57;2.30;;;;;;;;;;6184899;23;20184;-91
2022/03/12 15:03:59;;;;;;;4.88;2.33;;;;;;;;;;6187569;23;20195;-90
2022/03/12 15:10:38;;;;;;;4.88;2.20;;;;;;;;;;6186850;23;20176;-90
2022/03/12 15:13:49;;;;;;;5.10;2.30;;;;;;;;;;6185511;23;20286;-91
2022/03/12 15:16:56;;;;;;;4.68;2.85;;;;;;;;;;6183770;23;20191;-89
2022/03/12 15:20:06;;;;;;;5.57;3.53;;;;;;;;;;6186872;23;20195;-88
2022/03/12 15:23:13;;;;;;;3.92;2.30;;;;;;;;;;6181472;23;20790;-89
2022/03/12 15:26:19;;;;;;;3.88;2.25;;;;;;;;;;6181550;23;20250;-87
2022/03/12 15:29:29;;;;;;;5.57;2.30;;;;;;;;;;6181457;23;20187;-90
2022/03/12 15:32:35;;;;;;;3.67;2.05;;;;;;;;;;6182505;23;20212;-91
2022/03/12 15:35:41;;;;;;;3.60;2.20;;;;;;;;;;6181655;23;20196;-91
2022/03/12 15:38:47;;;;;;;4.10;2.20;;;;;;;;;;6181893;23;20171;-91
2022/03/12 15:41:52;;;;;;;5.53;2.42;;;;;;;;;;6183493;23;20172;-90
2022/03/12 15:45:00;;;;;;;5.10;2.20;;;;;;;;;;6202898;23;20228;-90
2022/03/12 15:48:10;;;;;;;3.38;2.08;;;;;;;;;;6184691;23;20213;-90
2022/03/12 15:51:17;;;;;;;5.05;2.40;;;;;;;;;;6184905;23;20183;-90
2022/03/12 15:54:23;;;;;;;10.68;5.50;;;;;;;;;;6185687;23;20155;-91
2022/03/12 15:57:28;;;;;;;6.47;2.95;;;;;;;;;;6184254;23;20229;-90
2022/03/12 16:00:36;;;;;;;10.75;4.55;;;;;;;;;;6182962;23;20171;-90
2022/03/12 16:03:42;;;;;;;6.60;2.28;;;;;;;;;;6183683;23;20176;-88
2022/03/12 16:06:50;;;;;;;10.30;2.70;;;;;;;;;;6184346;23;20168;-89
2022/03/12 16:09:59;;;;;;;6.97;3.55;;;;;;;;;;6185409;23;20172;-89
2022/03/12 16:13:07;;;;;;;4.95;2.50;;;;;;;;;;6183268;23;20203;-92
2022/03/12 16:16:14;;;;;;;7.05;3.42;;;;;;;;;;6182862;23;20244;-89
2022/03/12 16:19:21;;;;;;;4.05;2.10;;;;;;;;;;6184087;23;20172;-87
2022/03/12 16:22:26;;;;;;;8.48;3.58;;;;;;;;;;6185136;23;20227;-87
2022/03/12 16:25:33;;;;;;;8.27;3.47;;;;;;;;;;6181871;23;20174;-88
2022/03/12 16:28:38;;;;;;;11.48;4.43;;;;;;;;;;6181527;23;20184;-90
2022/03/12 16:31:45;;;;;;;17.02;5.05;;;;;;;;;;6182010;23;20243;-87
2022/03/12 16:34:50;;;;;;;10.40;4.13;;;;;;;;;;6183946;23;20172;-88
2022/03/12 16:38:03;;;;;;;21.42;6.72;;;;;;;;;;6201582;23;20212;-88
2022/03/12 16:41:09;;;;;;;9.15;3.97;;;;;;;;;;6184543;23;20171;-91
2022/03/12 16:44:17;;;;;;;11.57;4.95;;;;;;;;;;6184692;23;20156;-90
2022/03/12 16:50:44;;;;;;;13.57;4.18;;;;;;;;;;6185248;23;20164;-89
2022/03/12 16:53:51;;;;;;;11.77;5.72;;;;;;;;;;6182551;23;20172;-90
2022/03/12 16:57:00;;;;;;;14.55;4.25;;;;;;;;;;6183061;23;20180;-89
2022/03/12 17:00:06;;;;;;;6.70;3.40;;;;;;;;;;6183528;23;20191;-91
2022/03/12 17:03:16;;;;;;;9.93;3.50;;;;;;;;;;6183134;23;20211;-90
2022/03/12 17:06:22;;;;;;;10.48;3.92;;;;;;;;;;6169637;23;20644;-90
2022/03/12 17:09:27;;;;;;;10.13;3.67;;;;;;;;;;6171295;23;20169;-90
2022/03/12 17:12:32;;;;;;;8.57;3.60;;;;;;;;;;6169602;23;20164;-90
2022/03/12 17:15:42;;;;;;;9.30;3.63;;;;;;;;;;6170044;23;20156;-90
2022/03/12 17:18:51;;;;;;;10.80;3.45;;;;;;;;;;6170491;23;20624;-89
2022/03/12 17:21:56;;;;;;;11.10;3.38;;;;;;;;;;6169055;23;20216;-91
2022/03/12 17:25:06;;;;;;;9.02;4.25;;;;;;;;;;6168934;23;20226;-90
2022/03/12 17:28:12;;;;;;;13.77;4.10;;;;;;;;;;6173122;23;20218;-87
2022/03/12 17:31:25;;;;;;;7.80;3.58;;;;;;;;;;6170900;23;20244;-90
2022/03/12 17:34:32;;;;;;;6.10;3.40;;;;;;;;;;6172450;23;20619;-91
2022/03/12 17:37:38;;;;;;;7.38;3.15;;;;;;;;;;6171276;23;20207;-90
2022/03/12 17:40:44;;;;;;;10.80;3.70;;;;;;;;;;6172187;23;20181;-91
2022/03/12 17:43:51;;;;;;;16.48;7.35;;;;;;;;;;6173896;23;20176;-91
2022/03/12 17:47:06;;;;;;;10.95;5.10;;;;;;;;;;6172052;23;20171;-89
2022/03/12 17:50:16;;;;;;;8.98;4.05;;;;;;;;;;6173074;23;20184;-90
2022/03/12 17:53:23;;;;;;;22.15;7.72;;;;;;;;;;6173638;23;20212;-91
2022/03/12 17:56:30;;;;;;;12.52;4.40;;;;;;;;;;6175442;23;20180;-90
2022/03/12 18:02:59;;;;;;;8.60;3.70;;;;;;;;;;6174883;23;20173;-90
2022/03/12 18:06:07;;;;;;;18.50;4.30;;;;;;;;;;6172766;23;20191;-89
2022/03/12 18:09:12;;;;;;;13.60;3.77;;;;;;;;;;6167104;23;20289;-87
2022/03/12 18:12:22;;;;;;;11.10;3.40;;;;;;;;;;6169537;23;20168;-90
2022/03/12 18:15:29;;;;;;;8.67;3.10;;;;;;;;;;6171016;23;20216;-90
2022/03/12 18:18:34;;;;;;;7.27;3.17;;;;;;;;;;6170013;23;20616;-91
2022/03/12 18:21:50;;;;;;;8.10;3.47;;;;;;;;;;6170203;23;20172;-90
2022/03/12 18:24:55;;;;;;;9.67;4.57;;;;;;;;;;6166666;23;20184;-90
2022/03/12 18:28:01;;;;;;;13.60;4.90;;;;;;;;;;6169090;23;20324;-90
2022/03/12 18:31:07;;;;;;;12.60;3.67;;;;;;;;;;6168628;23;20173;-90
2022/03/12 18:34:13;;;;;;;13.47;4.77;;;;;;;;;;6166033;23;20200;-89
2022/03/12 18:37:20;;;;;;;14.70;4.40;;;;;;;;;;6170682;23;20191;-90
2022/03/12 18:40:25;;;;;;;11.00;5.20;;;;;;;;;;6169318;23;20176;-89
2022/03/12 18:43:30;;;;;;;11.57;4.53;;;;;;;;;;6170177;23;20164;-90
2022/03/12 18:46:38;;;;;;;11.93;4.77;;;;;;;;;;6168752;23;20168;-89
2022/03/12 18:49:48;;;;;;;11.80;4.70;;;;;;;;;;6171711;23;20239;-90